createdAt,value
2018-11-29T00:01:32.062Z,22.20
2018-11-29T00:04:03.589Z,22.30
2018-11-29T00:06:35.120Z,22.40
2018-11-29T00:09:08.866Z,22.40
2018-11-29T00:11:40.407Z,22.40
2018-11-29T00:14:11.946Z,22.40
2018-11-29T00:16:43.415Z,22.40
2018-11-29T00:19:14.872Z,22.40
2018-11-29T00:21:46.301Z,22.30
2018-11-29T00:24:17.853Z,22.30
2018-11-29T00:26:49.291Z,22.30
2018-11-29T00:29:20.764Z,22.30
2018-11-29T00:31:52.475Z,22.40
2018-11-29T00:34:23.971Z,22.40
2018-11-29T00:36:55.511Z,22.40
2018-11-29T00:39:27.169Z,22.40
2018-11-29T00:41:58.619Z,22.30
2018-11-29T00:44:30.179Z,22.40
2018-11-29T00:47:01.643Z,22.30
2018-11-29T00:49:33.063Z,22.30
2018-11-29T00:52:04.545Z,22.30
2018-11-29T00:54:36.072Z,22.40
2018-11-29T00:57:08.115Z,22.40
2018-11-29T00:59:39.549Z,22.40
2018-11-29T01:02:11.266Z,22.40
2018-11-29T01:04:42.765Z,22.40
2018-11-29T01:07:14.183Z,22.40
2018-11-29T01:09:45.676Z,22.30
2018-11-29T01:12:17.162Z,22.30
2018-11-29T01:14:48.683Z,22.30
2018-11-29T01:17:20.254Z,22.40
2018-11-29T01:19:51.744Z,22.40
2018-11-29T01:22:23.377Z,22.40
2018-11-29T01:24:55.014Z,22.50
2018-11-29T01:27:26.660Z,22.50
2018-11-29T01:29:58.166Z,22.40
2018-11-29T01:32:30.767Z,22.40
2018-11-29T01:35:02.804Z,22.40
2018-11-29T01:37:34.454Z,22.40
2018-11-29T01:40:06.862Z,22.30
2018-11-29T01:42:38.504Z,22.40
2018-11-29T01:45:10.030Z,22.40
2018-11-29T01:47:41.558Z,22.40
2018-11-29T01:50:13.316Z,22.40
2018-11-29T01:52:44.786Z,22.40
2018-11-29T01:55:16.254Z,22.40
2018-11-29T01:57:47.909Z,22.40
2018-11-29T02:00:19.896Z,22.40
2018-11-29T02:02:52.686Z,22.30
2018-11-29T02:05:24.174Z,22.40
2018-11-29T02:07:55.611Z,22.40
2018-11-29T02:10:27.909Z,22.40
2018-11-29T02:12:59.365Z,22.50
2018-11-29T02:15:30.835Z,22.50
2018-11-29T02:18:02.247Z,22.50
2018-11-29T02:20:33.729Z,22.40
2018-11-29T02:23:05.255Z,22.40
2018-11-29T02:25:36.745Z,22.30
2018-11-29T02:28:08.340Z,22.40
2018-11-29T02:30:39.811Z,22.40
2018-11-29T02:33:11.331Z,22.50
2018-11-29T02:35:42.879Z,22.50
2018-11-29T02:38:14.540Z,22.50
2018-11-29T02:40:46.510Z,22.50
2018-11-29T02:43:17.983Z,22.50
2018-11-29T02:45:49.575Z,22.40
2018-11-29T02:48:21.122Z,22.40
2018-11-29T02:50:52.709Z,22.40
2018-11-29T02:53:24.312Z,22.40
2018-11-29T02:55:55.999Z,22.40
2018-11-29T02:58:27.675Z,22.50
2018-11-29T03:00:59.128Z,22.50
2018-11-29T03:03:30.608Z,22.50
2018-11-29T03:06:02.287Z,22.50
2018-11-29T03:08:33.784Z,22.50
2018-11-29T03:11:05.269Z,22.50
2018-11-29T03:13:36.686Z,22.40
2018-11-29T03:16:08.388Z,22.40
2018-11-29T03:18:40.168Z,22.40
2018-11-29T03:21:11.757Z,22.50
2018-11-29T03:23:43.248Z,22.50
2018-11-29T03:26:14.665Z,22.50
2018-11-29T03:28:46.096Z,22.50
2018-11-29T03:31:17.915Z,22.50
2018-11-29T03:33:49.402Z,22.50
2018-11-29T03:36:20.830Z,22.50
2018-11-29T03:38:52.443Z,22.40
2018-11-29T03:41:23.927Z,22.40
2018-11-29T03:43:55.357Z,22.50
2018-11-29T03:46:26.912Z,22.50
2018-11-29T03:48:58.598Z,22.50
2018-11-29T03:51:30.044Z,22.50
2018-11-29T03:54:01.532Z,22.50
2018-11-29T03:56:33.049Z,22.50
2018-11-29T03:59:04.539Z,22.50
2018-11-29T04:01:36.046Z,22.40
2018-11-29T04:04:13.436Z,22.40
2018-11-29T04:06:46.283Z,22.50
2018-11-29T04:09:17.730Z,22.50
2018-11-29T04:11:49.214Z,22.50
2018-11-29T04:14:20.868Z,22.50
2018-11-29T04:16:52.366Z,22.60
2018-11-29T04:19:23.932Z,22.60
2018-11-29T04:21:55.394Z,22.50
2018-11-29T04:24:26.861Z,22.50
2018-11-29T04:26:58.368Z,22.50
2018-11-29T04:29:29.932Z,22.40
2018-11-29T04:32:01.573Z,22.40
2018-11-29T04:34:32.977Z,22.30
2018-11-29T04:37:04.512Z,22.30
2018-11-29T04:39:35.989Z,22.20
2018-11-29T04:42:07.755Z,22.20
2018-11-29T04:44:39.269Z,22.10
2018-11-29T04:47:10.756Z,22.10
2018-11-29T04:49:42.220Z,22.00
2018-11-29T04:52:13.940Z,22.00
2018-11-29T04:54:45.605Z,21.90
2018-11-29T04:57:17.045Z,21.90
2018-11-29T04:59:48.507Z,21.70
2018-11-29T05:02:20.595Z,21.70
2018-11-29T05:04:52.372Z,21.80
2018-11-29T05:07:24.429Z,21.80
2018-11-29T05:09:55.905Z,21.90
2018-11-29T05:12:27.309Z,21.90
2018-11-29T05:14:58.827Z,22.00
2018-11-29T05:17:30.277Z,22.00
2018-11-29T05:20:01.890Z,22.00
2018-11-29T05:22:33.353Z,22.10
2018-11-29T05:25:07.585Z,21.50
2018-11-29T05:27:39.414Z,21.50
2018-11-29T05:30:15.862Z,21.80
2018-11-29T05:32:47.565Z,22.00
2018-11-29T05:35:19.453Z,22.00
2018-11-29T05:37:50.917Z,22.00
2018-11-29T05:40:22.349Z,22.10
2018-11-29T05:42:53.780Z,22.10
2018-11-29T05:45:25.498Z,22.10
2018-11-29T05:47:57.236Z,22.20
2018-11-29T05:50:28.842Z,22.30
2018-11-29T05:53:00.398Z,22.30
2018-11-29T05:55:31.891Z,22.30
2018-11-29T05:58:03.329Z,22.30
2018-11-29T06:00:34.983Z,22.30
2018-11-29T06:03:06.835Z,22.30
2018-11-29T06:05:39.480Z,22.20
2018-11-29T06:08:10.279Z,22.30
2018-11-29T06:10:41.702Z,22.30
2018-11-29T06:13:13.187Z,22.40
2018-11-29T06:15:44.645Z,22.40
2018-11-29T06:18:16.324Z,22.40
2018-11-29T06:20:47.998Z,22.40
2018-11-29T06:23:19.878Z,22.40
2018-11-29T06:25:51.665Z,22.30
2018-11-29T06:28:23.256Z,22.30
2018-11-29T06:30:58.586Z,22.30
2018-11-29T06:33:30.351Z,22.30
2018-11-29T06:36:02.164Z,22.40
2018-11-29T06:38:33.562Z,22.40
2018-11-29T06:41:05.054Z,22.40
2018-11-29T06:43:36.922Z,22.40
2018-11-29T06:46:08.648Z,22.40
2018-11-29T06:48:40.200Z,22.40
2018-11-29T06:51:11.782Z,22.40
2018-11-29T06:53:49.001Z,22.40
2018-11-29T06:56:20.552Z,22.40
2018-11-29T06:58:52.170Z,22.40
2018-11-29T07:01:24.000Z,22.50
2018-11-29T07:03:55.564Z,22.50
2018-11-29T07:06:27.232Z,22.50
2018-11-29T07:08:58.830Z,22.50
2018-11-29T07:11:30.582Z,22.40
2018-11-29T07:14:02.166Z,22.40
2018-11-29T07:16:33.733Z,22.40
2018-11-29T07:19:05.309Z,22.40
2018-11-29T07:21:50.604Z,22.40
2018-11-29T07:24:22.300Z,22.50
2018-11-29T07:26:53.880Z,22.50
2018-11-29T07:29:25.506Z,22.50
2018-11-29T07:31:57.347Z,22.50
2018-11-29T07:34:28.963Z,22.50
2018-11-29T07:37:00.665Z,22.50
2018-11-29T07:39:32.231Z,22.50
2018-11-29T07:42:03.847Z,22.50
2018-11-29T07:44:35.772Z,22.50
2018-11-29T07:47:08.118Z,22.60
2018-11-29T07:49:39.743Z,22.60
2018-11-29T07:52:11.340Z,22.60
2018-11-29T07:54:42.966Z,22.60
2018-11-29T07:57:14.575Z,22.60
2018-11-29T07:59:46.203Z,22.50
2018-11-29T08:02:17.763Z,22.50
2018-11-29T08:04:49.400Z,22.40
2018-11-29T08:07:20.961Z,22.50
2018-11-29T08:09:52.532Z,22.60
2018-11-29T08:12:24.158Z,22.60
2018-11-29T08:14:55.721Z,22.70
2018-11-29T08:17:27.238Z,22.70
2018-11-29T08:19:58.800Z,22.90
2018-11-29T08:22:30.418Z,22.90
2018-11-29T08:25:02.057Z,22.90
2018-11-29T08:27:33.520Z,22.90
2018-11-29T08:30:05.401Z,22.90
2018-11-29T08:32:37.202Z,23.00
2018-11-29T08:35:10.153Z,23.00
2018-11-29T08:37:42.516Z,23.10
2018-11-29T08:40:16.755Z,23.10
2018-11-29T08:42:48.330Z,23.10
2018-11-29T08:45:19.816Z,23.10
2018-11-29T08:47:51.382Z,23.10
2018-11-29T08:50:22.847Z,23.10
2018-11-29T08:52:57.831Z,23.00
2018-11-29T08:55:29.354Z,23.10
2018-11-29T08:58:00.810Z,23.10
2018-11-29T09:00:32.268Z,23.10
2018-11-29T09:03:03.756Z,23.10
2018-11-29T09:05:35.298Z,23.00
2018-11-29T09:08:06.809Z,23.00
2018-11-29T09:10:38.461Z,22.70
2018-11-29T09:13:09.963Z,21.70
2018-11-29T09:15:41.563Z,21.00
2018-11-29T09:18:13.557Z,20.60
2018-11-29T09:20:45.101Z,20.30
2018-11-29T09:23:16.605Z,20.10
2018-11-29T09:25:48.183Z,20.10
2018-11-29T09:28:19.751Z,20.10
2018-11-29T09:30:51.265Z,20.00
2018-11-29T09:33:22.796Z,20.10
2018-11-29T09:35:54.286Z,20.10
2018-11-29T09:38:25.837Z,20.00
2018-11-29T09:40:57.442Z,20.00
2018-11-29T09:43:28.899Z,20.10
2018-11-29T09:46:00.352Z,20.00
2018-11-29T09:48:31.926Z,19.90
2018-11-29T09:51:06.794Z,19.90
2018-11-29T09:53:39.126Z,20.00
2018-11-29T09:56:22.903Z,20.00
2018-11-29T09:58:55.151Z,20.00
2018-11-29T10:01:26.834Z,19.90
2018-11-29T10:03:58.387Z,20.00
2018-11-29T10:06:30.908Z,20.00
2018-11-29T10:09:15.201Z,20.00
2018-11-29T10:11:52.510Z,20.00
2018-11-29T10:14:26.595Z,20.00
2018-11-29T10:17:02.611Z,20.10
2018-11-29T10:19:35.252Z,20.10
2018-11-29T10:22:11.432Z,20.10
2018-11-29T10:24:43.076Z,20.10
2018-11-29T10:27:16.136Z,20.10
2018-11-29T10:29:48.142Z,20.00
2018-11-29T10:32:34.159Z,20.10
2018-11-29T10:35:11.299Z,20.00
2018-11-29T10:40:55.764Z,19.90
2018-11-29T10:43:27.716Z,20.00
2018-11-29T10:46:03.140Z,19.90
2018-11-29T10:59:30.729Z,19.90
2018-11-29T11:02:07.605Z,19.70
2018-11-29T11:04:39.703Z,19.70
2018-11-29T11:07:11.803Z,19.70
2018-11-29T11:09:43.772Z,19.70
2018-11-29T11:12:18.795Z,19.70
2018-11-29T11:14:50.243Z,19.70
2018-11-29T11:17:22.655Z,19.60
2018-11-29T11:19:54.733Z,19.60
2018-11-29T11:22:26.915Z,19.60
2018-11-29T11:24:58.981Z,19.60
2018-11-29T11:27:31.160Z,19.50
2018-11-29T11:30:03.590Z,19.50
2018-11-29T11:32:35.641Z,19.50
2018-11-29T11:35:08.241Z,19.60
2018-11-29T11:37:40.382Z,20.50
2018-11-29T11:40:13.638Z,21.10
2018-11-29T11:42:46.165Z,21.40
2018-11-29T11:45:20.609Z,21.60
2018-11-29T11:47:52.686Z,21.70
2018-11-29T11:50:25.289Z,21.70
2018-11-29T11:52:57.515Z,21.80
2018-11-29T11:55:30.392Z,21.80
2018-11-29T11:58:01.774Z,21.90
2018-11-29T12:00:34.005Z,22.00
2018-11-29T12:03:10.084Z,22.00
2018-11-29T12:05:42.164Z,22.00
2018-11-29T12:08:14.262Z,22.10
2018-11-29T12:10:46.236Z,22.10
2018-11-29T12:13:18.397Z,22.10
2018-11-29T12:15:51.036Z,22.10
2018-11-29T12:18:23.079Z,22.10
2018-11-29T12:20:55.339Z,22.10
2018-11-29T12:23:27.329Z,22.20
2018-11-29T12:25:59.324Z,22.20
2018-11-29T12:28:31.358Z,22.30
2018-11-29T12:31:03.282Z,22.30
2018-11-29T12:33:35.231Z,22.20
2018-11-29T12:36:21.968Z,22.10
2018-11-29T12:38:54.258Z,22.20
2018-11-29T12:41:26.334Z,22.20
2018-11-29T12:43:58.243Z,22.20
2018-11-29T12:46:30.398Z,22.20
2018-11-29T12:49:02.499Z,22.30
2018-11-29T12:51:34.492Z,22.30
2018-11-29T12:54:07.747Z,22.40
2018-11-29T12:56:40.034Z,22.40
2018-11-29T12:59:12.123Z,22.40
2018-11-29T13:01:44.363Z,22.50
2018-11-29T13:04:16.470Z,22.40
2018-11-29T13:06:48.758Z,22.40
2018-11-29T13:09:20.915Z,22.40
2018-11-29T13:11:53.649Z,22.40
2018-11-29T13:14:25.718Z,22.40
2018-11-29T13:16:57.673Z,22.40
2018-11-29T13:19:29.664Z,22.50
2018-11-29T13:22:01.681Z,22.50
2018-11-29T13:24:33.654Z,22.60
2018-11-29T13:27:05.891Z,22.60
2018-11-29T13:29:38.034Z,22.60
2018-11-29T13:32:10.294Z,22.60
2018-11-29T13:34:42.454Z,22.50
2018-11-29T13:37:14.568Z,21.60
2018-11-29T13:39:46.937Z,20.80
2018-11-29T13:42:19.083Z,20.50
2018-11-29T13:44:51.268Z,20.30
2018-11-29T13:47:23.268Z,20.20
2018-11-29T13:49:55.411Z,20.10
2018-11-29T13:52:27.592Z,20.00
2018-11-29T13:54:59.629Z,19.90
2018-11-29T13:57:31.743Z,19.90
2018-11-29T14:00:04.091Z,19.90
2018-11-29T14:02:36.257Z,19.80
2018-11-29T14:05:09.076Z,19.70
2018-11-29T14:07:41.148Z,19.70
2018-11-29T14:10:15.821Z,20.20
2018-11-29T14:12:48.419Z,20.80
2018-11-29T14:15:21.428Z,21.40
2018-11-29T14:17:53.541Z,21.70
2018-11-29T14:20:25.695Z,21.90
2018-11-29T14:22:57.841Z,22.10
2018-11-29T14:25:30.035Z,22.10
2018-11-29T14:28:02.116Z,22.20
2018-11-29T14:30:34.269Z,22.20
2018-11-29T14:33:06.682Z,22.20
2018-11-29T14:35:39.025Z,22.20
2018-11-29T14:38:11.321Z,22.30
2018-11-29T14:40:43.472Z,22.30
2018-11-29T14:43:15.577Z,22.30
2018-11-29T14:45:47.466Z,22.40
2018-11-29T14:48:19.651Z,22.40
2018-11-29T14:50:51.829Z,22.40
2018-11-29T14:53:24.033Z,22.40
2018-11-29T14:55:56.215Z,22.40
2018-11-29T14:58:28.348Z,22.40
2018-11-29T15:01:00.510Z,22.40
2018-11-29T15:06:31.575Z,22.50
2018-11-29T15:09:04.138Z,22.50
2018-11-29T15:11:36.146Z,22.60
2018-11-29T15:14:08.303Z,22.20
2018-11-29T15:16:40.568Z,21.20
2018-11-29T15:19:12.735Z,20.40
2018-11-29T15:21:44.870Z,21.20
2018-11-29T15:24:17.052Z,21.70
2018-11-29T15:26:49.156Z,22.00
2018-11-29T15:29:21.350Z,22.20
2018-11-29T15:31:53.418Z,22.30
2018-11-29T15:34:25.473Z,22.40
2018-11-29T15:36:57.704Z,22.50
2018-11-29T15:39:29.728Z,22.50
2018-11-29T15:42:01.894Z,22.50
2018-11-29T15:44:34.022Z,22.60
2018-11-29T15:47:06.089Z,22.60
2018-11-29T15:49:38.168Z,22.60
2018-11-29T15:52:10.346Z,22.60
2018-11-29T15:54:42.444Z,22.60
2018-11-29T15:57:14.441Z,22.50
2018-11-29T15:59:46.555Z,22.60
2018-11-29T16:02:18.822Z,22.60
2018-11-29T16:04:50.843Z,22.70
2018-11-29T16:07:23.031Z,22.70
2018-11-29T16:09:55.042Z,22.70
2018-11-29T16:12:27.040Z,22.70
2018-11-29T16:14:58.984Z,22.70
2018-11-29T16:17:31.499Z,22.70
2018-11-29T16:20:03.545Z,22.70
2018-11-29T16:22:35.556Z,22.70
2018-11-29T16:25:09.260Z,22.70
2018-11-29T16:27:41.410Z,22.70
2018-11-29T16:30:16.736Z,22.80
2018-11-29T16:32:48.863Z,22.80
2018-11-29T16:35:21.038Z,22.80
2018-11-29T16:37:53.162Z,22.90
2018-11-29T16:40:25.627Z,22.90
2018-11-29T16:42:57.722Z,22.80
2018-11-29T16:45:29.901Z,22.80
2018-11-29T16:48:02.034Z,22.70
2018-11-29T16:50:34.370Z,22.70
2018-11-29T16:53:06.916Z,22.60
2018-11-29T16:55:39.344Z,22.60
2018-11-29T16:58:13.826Z,22.50
2018-11-29T17:01:48.779Z,22.60
2018-11-29T17:04:21.379Z,22.70
2018-11-29T17:06:53.488Z,22.80
2018-11-29T17:09:25.642Z,22.90
2018-11-29T17:12:00.179Z,22.90
2018-11-29T17:14:29.932Z,22.90
2018-11-29T17:17:02.074Z,22.90
2018-11-29T17:19:34.129Z,22.90
2018-11-29T17:22:06.316Z,22.90
2018-11-29T17:24:38.494Z,22.90
2018-11-29T17:27:10.669Z,22.80
2018-11-29T17:29:44.039Z,22.90
2018-11-29T17:32:16.109Z,22.90
2018-11-29T17:34:48.243Z,23.00
2018-11-29T17:37:20.563Z,23.00
2018-11-29T17:39:52.590Z,23.00
2018-11-29T17:42:24.988Z,23.00
2018-11-29T17:44:57.066Z,23.00
2018-11-29T17:47:29.505Z,23.00
2018-11-29T17:50:02.717Z,23.00
2018-11-29T17:52:34.768Z,23.00
2018-11-29T17:55:07.576Z,23.00
2018-11-29T17:57:39.866Z,23.00
2018-11-29T18:00:13.712Z,23.00
2018-11-29T18:02:45.990Z,23.00
2018-11-29T18:05:18.027Z,23.00
2018-11-29T18:07:50.342Z,23.10
2018-11-29T18:10:23.564Z,23.10
2018-11-29T18:12:59.278Z,23.10
2018-11-29T18:15:33.206Z,23.10
2018-11-29T18:18:06.103Z,23.10
2018-11-29T18:20:40.930Z,23.00
2018-11-29T18:23:13.520Z,23.00
2018-11-29T18:25:45.850Z,23.00
2018-11-29T18:28:17.971Z,23.00
2018-11-29T18:30:50.486Z,23.00
2018-11-29T18:33:22.554Z,23.10
2018-11-29T18:35:54.874Z,23.10
2018-11-29T18:38:26.878Z,23.10
2018-11-29T18:40:59.696Z,23.10
2018-11-29T18:43:31.758Z,23.10
2018-11-29T18:46:04.116Z,23.10
2018-11-29T18:48:36.843Z,23.10
2018-11-29T18:51:09.166Z,23.10
2018-11-29T18:53:41.378Z,23.10
2018-11-29T18:56:13.834Z,23.10
2018-11-29T18:58:46.011Z,23.10
2018-11-29T19:01:18.230Z,23.20
2018-11-29T19:03:50.265Z,23.20
2018-11-29T19:06:22.525Z,23.20
2018-11-29T19:08:54.700Z,23.20
2018-11-29T19:11:26.878Z,23.20
2018-11-29T19:13:58.737Z,23.10
2018-11-29T19:16:30.877Z,23.10
2018-11-29T19:19:03.341Z,23.10
2018-11-29T19:21:35.809Z,23.10
2018-11-29T19:24:10.262Z,23.10
2018-11-29T19:26:42.481Z,23.20
2018-11-29T19:29:14.760Z,23.20
2018-11-29T19:31:47.057Z,23.20
2018-11-29T19:34:19.135Z,23.20
2018-11-29T19:36:51.471Z,23.20
2018-11-29T19:39:23.440Z,23.20
2018-11-29T19:41:55.640Z,23.10
2018-11-29T19:44:27.702Z,23.20
2018-11-29T19:46:59.898Z,23.20
2018-11-29T19:49:32.470Z,23.20
2018-11-29T19:52:04.634Z,23.20
2018-11-29T19:54:36.855Z,23.20
2018-11-29T19:57:08.864Z,23.30
2018-11-29T19:59:40.914Z,23.30
2018-11-29T20:02:13.076Z,23.20
2018-11-29T20:04:45.189Z,23.20
2018-11-29T20:07:17.371Z,23.20
2018-11-29T20:09:50.544Z,23.20
2018-11-29T20:12:22.776Z,23.20
2018-11-29T20:14:54.958Z,23.20
2018-11-29T20:17:28.283Z,23.20
2018-11-29T20:20:03.605Z,23.30
2018-11-29T20:22:36.327Z,23.30
2018-11-29T20:25:11.461Z,23.30
2018-11-29T20:27:43.625Z,23.30
2018-11-29T20:30:20.194Z,23.30
2018-11-29T20:32:56.882Z,23.30
2018-11-29T20:35:29.902Z,23.30
2018-11-29T20:38:02.334Z,23.20
2018-11-29T20:40:35.723Z,23.20
2018-11-29T20:43:07.991Z,23.30
2018-11-29T20:45:41.758Z,23.30
2018-11-29T20:48:21.594Z,23.30
2018-11-29T20:50:54.576Z,23.30
2018-11-29T20:53:28.446Z,23.30
2018-11-29T20:56:02.067Z,23.30
2018-11-29T20:58:34.477Z,23.30
2018-11-29T21:01:08.452Z,23.30
2018-11-29T21:03:40.774Z,23.30
2018-11-29T21:06:14.140Z,23.30
2018-11-29T21:08:46.604Z,23.30
2018-11-29T21:11:18.700Z,23.30
2018-11-29T21:13:51.012Z,23.30
2018-11-29T21:16:23.177Z,23.40
2018-11-29T21:18:55.895Z,23.40
2018-11-29T21:21:27.883Z,23.40
2018-11-29T21:23:59.861Z,23.40
2018-11-29T21:26:32.120Z,23.30
2018-11-29T21:29:05.134Z,23.30
2018-11-29T21:31:38.919Z,23.30
2018-11-29T21:34:11.108Z,23.30
2018-11-29T21:36:43.008Z,23.30
2018-11-29T21:39:15.194Z,23.40
2018-11-29T21:41:47.310Z,23.40
2018-11-29T21:44:20.428Z,23.40
2018-11-29T21:46:52.901Z,23.40
2018-11-29T21:49:25.337Z,23.40
2018-11-29T21:51:57.458Z,23.40
2018-11-29T21:54:30.258Z,23.30
2018-11-29T21:57:02.410Z,23.30
2018-11-29T21:59:35.567Z,23.30
2018-11-29T22:02:07.048Z,23.40
2018-11-29T22:04:39.471Z,23.40
2018-11-29T22:07:11.512Z,23.40
2018-11-29T22:09:43.673Z,23.50
2018-11-29T22:12:15.600Z,23.40
2018-11-29T22:14:48.193Z,23.40
2018-11-29T22:17:20.181Z,23.40
2018-11-29T22:19:52.347Z,23.40
2018-11-29T22:22:24.414Z,23.30
2018-11-29T22:24:56.453Z,23.40
2018-11-29T22:27:28.501Z,23.40
2018-11-29T22:30:00.588Z,23.40
2018-11-29T22:32:32.532Z,23.50
2018-11-29T22:35:04.328Z,23.50
2018-11-29T22:37:36.058Z,23.50
2018-11-29T22:40:08.517Z,23.40
2018-11-29T22:42:40.700Z,23.40
2018-11-29T22:45:12.621Z,23.40
2018-11-29T22:47:44.858Z,23.40
2018-11-29T22:50:17.374Z,23.40
2018-11-29T22:52:49.524Z,23.40
2018-11-29T22:55:21.802Z,23.40
2018-11-29T22:57:53.881Z,23.50
2018-11-29T23:00:26.275Z,23.50
2018-11-29T23:02:58.479Z,23.50
2018-11-29T23:05:30.673Z,23.50
2018-11-29T23:08:02.725Z,23.40
2018-11-29T23:10:35.128Z,23.40
2018-11-29T23:13:07.621Z,23.40
2018-11-29T23:15:39.778Z,23.40
2018-11-29T23:18:11.787Z,23.50
2018-11-29T23:20:43.967Z,23.50
2018-11-29T23:23:16.489Z,23.50
2018-11-29T23:25:48.539Z,23.60
2018-11-29T23:28:20.920Z,23.60
2018-11-29T23:30:53.206Z,23.50
2018-11-29T23:33:25.197Z,23.50
2018-11-29T23:35:57.396Z,23.50
2018-11-29T23:38:29.560Z,23.50
2018-11-29T23:41:01.824Z,23.50
2018-11-29T23:43:34.617Z,23.50
2018-11-29T23:46:06.768Z,23.50
2018-11-29T23:48:39.037Z,23.60
2018-11-29T23:51:11.228Z,23.60
2018-11-29T23:53:43.356Z,23.60
2018-11-29T23:56:15.520Z,23.60
2018-11-29T23:58:47.576Z,23.60
